sensor_id;sensor_type;location;lat;lon;timestamp;P1;durP1;ratioP1;P2;durP2;ratioP2
21046;SDS011;10682;50.874;3.656;2022-07-23T00:00:20;9.65;;;4.70;;
21046;SDS011;10682;50.874;3.656;2022-07-23T00:02:47;8.70;;;5.00;;
21046;SDS011;10682;50.874;3.656;2022-07-23T00:05:16;8.13;;;4.78;;
21046;SDS011;10682;50.874;3.656;2022-07-23T00:07:43;8.93;;;5.18;;
21046;SDS011;10682;50.874;3.656;2022-07-23T00:10:10;10.97;;;5.33;;
21046;SDS011;10682;50.874;3.656;2022-07-23T00:12:37;11.27;;;6.60;;
21046;SDS011;10682;50.874;3.656;2022-07-23T00:15:16;10.48;;;6.30;;
21046;SDS011;10682;50.874;3.656;2022-07-23T00:17:44;8.77;;;5.30;;
21046;SDS011;10682;50.874;3.656;2022-07-23T00:20:11;8.93;;;6.37;;
21046;SDS011;10682;50.874;3.656;2022-07-23T00:22:47;8.43;;;5.57;;
21046;SDS011;10682;50.874;3.656;2022-07-23T00:25:17;8.33;;;6.17;;
21046;SDS011;10682;50.874;3.656;2022-07-23T00:27:56;8.27;;;6.00;;
21046;SDS011;10682;50.874;3.656;2022-07-23T00:30:24;11.50;;;6.27;;
21046;SDS011;10682;50.874;3.656;2022-07-23T00:32:53;12.37;;;5.70;;
21046;SDS011;10682;50.874;3.656;2022-07-23T00:35:24;9.57;;;6.23;;
21046;SDS011;10682;50.874;3.656;2022-07-23T00:37:54;11.40;;;6.00;;
21046;SDS011;10682;50.874;3.656;2022-07-23T00:40:22;10.70;;;7.00;;
21046;SDS011;10682;50.874;3.656;2022-07-23T00:42:50;10.20;;;6.47;;
21046;SDS011;10682;50.874;3.656;2022-07-23T00:45:18;9.50;;;6.70;;
21046;SDS011;10682;50.874;3.656;2022-07-23T00:47:46;11.37;;;7.17;;
21046;SDS011;10682;50.874;3.656;2022-07-23T00:53:10;10.23;;;7.10;;
21046;SDS011;10682;50.874;3.656;2022-07-23T00:55:37;13.67;;;7.30;;
21046;SDS011;10682;50.874;3.656;2022-07-23T00:58:05;13.37;;;7.37;;
21046;SDS011;10682;50.874;3.656;2022-07-23T01:00:32;12.50;;;7.20;;
21046;SDS011;10682;50.874;3.656;2022-07-23T01:03:01;10.17;;;6.60;;
21046;SDS011;10682;50.874;3.656;2022-07-23T01:05:28;8.80;;;6.13;;
21046;SDS011;10682;50.874;3.656;2022-07-23T01:07:55;11.77;;;6.73;;
21046;SDS011;10682;50.874;3.656;2022-07-23T01:10:22;8.73;;;4.70;;
21046;SDS011;10682;50.874;3.656;2022-07-23T01:13:09;6.77;;;3.33;;
21046;SDS011;10682;50.874;3.656;2022-07-23T01:15:37;10.47;;;5.47;;
21046;SDS011;10682;50.874;3.656;2022-07-23T01:18:05;8.10;;;5.07;;
21046;SDS011;10682;50.874;3.656;2022-07-23T01:20:34;8.17;;;5.87;;
21046;SDS011;10682;50.874;3.656;2022-07-23T01:23:01;11.30;;;5.93;;
21046;SDS011;10682;50.874;3.656;2022-07-23T01:25:28;8.80;;;6.27;;
21046;SDS011;10682;50.874;3.656;2022-07-23T01:27:55;8.07;;;5.63;;
21046;SDS011;10682;50.874;3.656;2022-07-23T01:30:22;8.90;;;5.83;;
21046;SDS011;10682;50.874;3.656;2022-07-23T01:32:49;10.83;;;6.20;;
21046;SDS011;10682;50.874;3.656;2022-07-23T01:35:16;14.73;;;7.80;;
21046;SDS011;10682;50.874;3.656;2022-07-23T01:37:44;12.03;;;7.03;;
21046;SDS011;10682;50.874;3.656;2022-07-23T01:40:11;13.67;;;8.10;;
21046;SDS011;10682;50.874;3.656;2022-07-23T01:42:38;13.30;;;7.40;;
21046;SDS011;10682;50.874;3.656;2022-07-23T01:45:07;13.67;;;7.50;;
21046;SDS011;10682;50.874;3.656;2022-07-23T01:47:35;10.13;;;7.13;;
21046;SDS011;10682;50.874;3.656;2022-07-23T01:50:02;13.97;;;8.17;;
21046;SDS011;10682;50.874;3.656;2022-07-23T01:52:29;15.00;;;7.93;;
21046;SDS011;10682;50.874;3.656;2022-07-23T01:54:56;13.00;;;7.43;;
21046;SDS011;10682;50.874;3.656;2022-07-23T01:57:23;11.40;;;7.03;;
21046;SDS011;10682;50.874;3.656;2022-07-23T01:59:50;19.10;;;8.40;;
21046;SDS011;10682;50.874;3.656;2022-07-23T02:02:17;14.03;;;8.10;;
21046;SDS011;10682;50.874;3.656;2022-07-23T02:04:44;12.30;;;7.73;;
21046;SDS011;10682;50.874;3.656;2022-07-23T02:07:11;12.50;;;7.17;;
21046;SDS011;10682;50.874;3.656;2022-07-23T02:09:39;10.13;;;5.70;;
21046;SDS011;10682;50.874;3.656;2022-07-23T02:12:06;9.13;;;5.87;;
21046;SDS011;10682;50.874;3.656;2022-07-23T02:14:33;9.30;;;5.60;;
21046;SDS011;10682;50.874;3.656;2022-07-23T02:17:04;10.10;;;6.60;;
21046;SDS011;10682;50.874;3.656;2022-07-23T02:19:31;11.67;;;6.60;;
21046;SDS011;10682;50.874;3.656;2022-07-23T02:21:58;11.50;;;6.13;;
21046;SDS011;10682;50.874;3.656;2022-07-23T02:24:25;11.77;;;6.50;;
21046;SDS011;10682;50.874;3.656;2022-07-23T02:26:52;11.73;;;6.23;;
21046;SDS011;10682;50.874;3.656;2022-07-23T02:29:19;10.27;;;7.07;;
21046;SDS011;10682;50.874;3.656;2022-07-23T02:31:47;12.03;;;7.00;;
21046;SDS011;10682;50.874;3.656;2022-07-23T02:34:14;13.47;;;7.10;;
21046;SDS011;10682;50.874;3.656;2022-07-23T02:36:41;11.23;;;6.73;;
21046;SDS011;10682;50.874;3.656;2022-07-23T02:39:08;11.87;;;6.83;;
21046;SDS011;10682;50.874;3.656;2022-07-23T02:41:38;10.33;;;6.80;;
21046;SDS011;10682;50.874;3.656;2022-07-23T02:44:05;10.90;;;6.70;;
21046;SDS011;10682;50.874;3.656;2022-07-23T02:46:35;12.03;;;7.20;;
21046;SDS011;10682;50.874;3.656;2022-07-23T02:49:02;12.70;;;8.27;;
21046;SDS011;10682;50.874;3.656;2022-07-23T02:51:31;17.37;;;8.77;;
21046;SDS011;10682;50.874;3.656;2022-07-23T02:53:59;12.70;;;8.47;;
21046;SDS011;10682;50.874;3.656;2022-07-23T02:56:25;18.20;;;9.43;;
21046;SDS011;10682;50.874;3.656;2022-07-23T02:58:53;18.50;;;9.97;;
21046;SDS011;10682;50.874;3.656;2022-07-23T03:01:19;17.77;;;9.90;;
21046;SDS011;10682;50.874;3.656;2022-07-23T03:03:47;15.37;;;8.87;;
21046;SDS011;10682;50.874;3.656;2022-07-23T03:06:14;14.20;;;8.60;;
21046;SDS011;10682;50.874;3.656;2022-07-23T03:08:41;14.00;;;7.97;;
21046;SDS011;10682;50.874;3.656;2022-07-23T03:11:08;14.00;;;8.13;;
21046;SDS011;10682;50.874;3.656;2022-07-23T03:13:37;14.73;;;7.83;;
21046;SDS011;10682;50.874;3.656;2022-07-23T03:16:14;14.93;;;8.80;;
21046;SDS011;10682;50.874;3.656;2022-07-23T03:18:41;13.97;;;7.97;;
21046;SDS011;10682;50.874;3.656;2022-07-23T03:21:08;17.27;;;8.87;;
21046;SDS011;10682;50.874;3.656;2022-07-23T03:23:35;16.57;;;8.73;;
21046;SDS011;10682;50.874;3.656;2022-07-23T03:26:03;12.67;;;7.73;;
21046;SDS011;10682;50.874;3.656;2022-07-23T03:28:30;14.17;;;8.33;;
21046;SDS011;10682;50.874;3.656;2022-07-23T03:30:57;17.67;;;8.97;;
21046;SDS011;10682;50.874;3.656;2022-07-23T03:33:24;13.10;;;8.70;;
21046;SDS011;10682;50.874;3.656;2022-07-23T03:35:53;14.03;;;9.10;;
21046;SDS011;10682;50.874;3.656;2022-07-23T03:38:24;16.93;;;9.43;;
21046;SDS011;10682;50.874;3.656;2022-07-23T03:40:54;15.30;;;8.60;;
21046;SDS011;10682;50.874;3.656;2022-07-23T03:43:21;17.23;;;9.47;;
21046;SDS011;10682;50.874;3.656;2022-07-23T03:45:54;19.33;;;9.77;;
21046;SDS011;10682;50.874;3.656;2022-07-23T03:48:21;12.73;;;8.03;;
21046;SDS011;10682;50.874;3.656;2022-07-23T03:50:48;14.03;;;7.50;;
21046;SDS011;10682;50.874;3.656;2022-07-23T03:53:15;10.30;;;6.93;;
21046;SDS011;10682;50.874;3.656;2022-07-23T03:55:42;11.60;;;7.50;;
21046;SDS011;10682;50.874;3.656;2022-07-23T03:58:09;13.43;;;8.00;;
21046;SDS011;10682;50.874;3.656;2022-07-23T04:00:36;15.40;;;8.93;;
21046;SDS011;10682;50.874;3.656;2022-07-23T04:03:03;16.10;;;8.77;;
21046;SDS011;10682;50.874;3.656;2022-07-23T04:05:30;15.53;;;9.37;;
21046;SDS011;10682;50.874;3.656;2022-07-23T04:08:04;15.00;;;8.87;;
21046;SDS011;10682;50.874;3.656;2022-07-23T04:10:44;19.63;;;9.90;;
21046;SDS011;10682;50.874;3.656;2022-07-23T04:13:11;16.87;;;8.03;;
21046;SDS011;10682;50.874;3.656;2022-07-23T04:15:38;17.27;;;7.87;;
21046;SDS011;10682;50.874;3.656;2022-07-23T04:18:09;16.50;;;7.77;;
21046;SDS011;10682;50.874;3.656;2022-07-23T04:20:36;17.47;;;8.53;;
21046;SDS011;10682;50.874;3.656;2022-07-23T04:23:06;21.23;;;10.60;;
21046;SDS011;10682;50.874;3.656;2022-07-23T04:25:33;22.20;;;12.03;;
21046;SDS011;10682;50.874;3.656;2022-07-23T04:28:00;28.93;;;12.30;;
21046;SDS011;10682;50.874;3.656;2022-07-23T04:30:27;26.33;;;11.60;;
21046;SDS011;10682;50.874;3.656;2022-07-23T04:32:54;22.27;;;11.27;;
21046;SDS011;10682;50.874;3.656;2022-07-23T04:35:21;26.53;;;12.73;;
21046;SDS011;10682;50.874;3.656;2022-07-23T04:37:52;21.43;;;11.83;;
21046;SDS011;10682;50.874;3.656;2022-07-23T04:40:19;21.37;;;10.27;;
21046;SDS011;10682;50.874;3.656;2022-07-23T04:42:48;27.40;;;13.60;;
21046;SDS011;10682;50.874;3.656;2022-07-23T04:45:15;25.40;;;12.27;;
21046;SDS011;10682;50.874;3.656;2022-07-23T04:47:42;30.33;;;13.30;;
21046;SDS011;10682;50.874;3.656;2022-07-23T04:50:09;37.07;;;11.90;;
21046;SDS011;10682;50.874;3.656;2022-07-23T04:52:36;26.87;;;11.30;;
21046;SDS011;10682;50.874;3.656;2022-07-23T04:55:04;29.10;;;14.33;;
21046;SDS011;10682;50.874;3.656;2022-07-23T04:57:31;27.50;;;13.40;;
21046;SDS011;10682;50.874;3.656;2022-07-23T04:59:58;29.37;;;14.40;;
21046;SDS011;10682;50.874;3.656;2022-07-23T05:02:25;33.30;;;14.30;;
21046;SDS011;10682;50.874;3.656;2022-07-23T05:04:52;31.80;;;14.37;;
21046;SDS011;10682;50.874;3.656;2022-07-23T05:07:19;30.43;;;13.83;;
21046;SDS011;10682;50.874;3.656;2022-07-23T05:09:50;22.20;;;13.33;;
21046;SDS011;10682;50.874;3.656;2022-07-23T05:12:17;25.37;;;14.43;;
21046;SDS011;10682;50.874;3.656;2022-07-23T05:14:44;25.47;;;13.80;;
21046;SDS011;10682;50.874;3.656;2022-07-23T05:17:11;27.20;;;15.03;;
21046;SDS011;10682;50.874;3.656;2022-07-23T05:19:38;32.33;;;15.13;;
21046;SDS011;10682;50.874;3.656;2022-07-23T05:22:05;34.27;;;15.50;;
21046;SDS011;10682;50.874;3.656;2022-07-23T05:24:32;32.63;;;15.87;;
21046;SDS011;10682;50.874;3.656;2022-07-23T05:26:59;29.30;;;14.17;;
21046;SDS011;10682;50.874;3.656;2022-07-23T05:29:26;26.10;;;13.27;;
21046;SDS011;10682;50.874;3.656;2022-07-23T05:31:53;24.83;;;12.73;;
21046;SDS011;10682;50.874;3.656;2022-07-23T05:34:20;18.47;;;11.40;;
21046;SDS011;10682;50.874;3.656;2022-07-23T05:36:47;27.03;;;13.57;;
21046;SDS011;10682;50.874;3.656;2022-07-23T05:39:15;20.80;;;11.90;;
21046;SDS011;10682;50.874;3.656;2022-07-23T05:41:42;21.13;;;11.90;;
21046;SDS011;10682;50.874;3.656;2022-07-23T05:44:09;23.03;;;12.47;;
21046;SDS011;10682;50.874;3.656;2022-07-23T05:46:36;24.23;;;12.45;;
21046;SDS011;10682;50.874;3.656;2022-07-23T05:49:03;20.98;;;13.25;;
21046;SDS011;10682;50.874;3.656;2022-07-23T05:51:31;20.87;;;13.80;;
21046;SDS011;10682;50.874;3.656;2022-07-23T05:53:58;28.55;;;13.90;;
21046;SDS011;10682;50.874;3.656;2022-07-23T05:56:26;25.10;;;14.23;;
21046;SDS011;10682;50.874;3.656;2022-07-23T05:58:53;25.92;;;14.95;;
21046;SDS011;10682;50.874;3.656;2022-07-23T06:01:20;27.35;;;14.95;;
21046;SDS011;10682;50.874;3.656;2022-07-23T06:03:48;30.17;;;17.08;;
21046;SDS011;10682;50.874;3.656;2022-07-23T06:06:15;24.45;;;14.70;;
21046;SDS011;10682;50.874;3.656;2022-07-23T06:08:42;30.58;;;17.02;;
21046;SDS011;10682;50.874;3.656;2022-07-23T06:11:09;30.38;;;16.25;;
21046;SDS011;10682;50.874;3.656;2022-07-23T06:13:36;33.92;;;17.48;;
21046;SDS011;10682;50.874;3.656;2022-07-23T06:16:03;31.25;;;16.45;;
21046;SDS011;10682;50.874;3.656;2022-07-23T06:18:31;27.15;;;16.60;;
21046;SDS011;10682;50.874;3.656;2022-07-23T06:20:58;26.55;;;16.38;;
21046;SDS011;10682;50.874;3.656;2022-07-23T06:23:26;24.08;;;15.65;;
21046;SDS011;10682;50.874;3.656;2022-07-23T06:25:53;29.52;;;15.52;;
21046;SDS011;10682;50.874;3.656;2022-07-23T06:28:20;26.73;;;15.60;;
21046;SDS011;10682;50.874;3.656;2022-07-23T06:30:47;22.83;;;15.02;;
21046;SDS011;10682;50.874;3.656;2022-07-23T06:33:15;26.58;;;15.30;;
21046;SDS011;10682;50.874;3.656;2022-07-23T06:35:42;23.02;;;14.98;;
21046;SDS011;10682;50.874;3.656;2022-07-23T06:38:09;29.55;;;16.25;;
21046;SDS011;10682;50.874;3.656;2022-07-23T06:40:36;23.98;;;15.10;;
21046;SDS011;10682;50.874;3.656;2022-07-23T06:43:03;26.15;;;14.98;;
21046;SDS011;10682;50.874;3.656;2022-07-23T06:45:30;23.20;;;15.27;;
21046;SDS011;10682;50.874;3.656;2022-07-23T06:47:57;26.95;;;16.15;;
21046;SDS011;10682;50.874;3.656;2022-07-23T06:50:24;26.33;;;14.80;;
21046;SDS011;10682;50.874;3.656;2022-07-23T06:52:52;27.58;;;14.88;;
21046;SDS011;10682;50.874;3.656;2022-07-23T06:55:19;26.15;;;14.80;;
21046;SDS011;10682;50.874;3.656;2022-07-23T06:57:46;28.67;;;15.35;;
21046;SDS011;10682;50.874;3.656;2022-07-23T07:00:13;24.42;;;14.57;;
21046;SDS011;10682;50.874;3.656;2022-07-23T07:02:41;24.48;;;15.20;;
21046;SDS011;10682;50.874;3.656;2022-07-23T07:05:08;27.70;;;15.00;;
21046;SDS011;10682;50.874;3.656;2022-07-23T07:07:35;23.63;;;14.65;;
21046;SDS011;10682;50.874;3.656;2022-07-23T07:10:05;23.80;;;14.55;;
21046;SDS011;10682;50.874;3.656;2022-07-23T07:12:40;23.08;;;14.50;;
21046;SDS011;10682;50.874;3.656;2022-07-23T07:15:07;26.35;;;14.98;;
21046;SDS011;10682;50.874;3.656;2022-07-23T07:17:35;25.08;;;14.20;;
21046;SDS011;10682;50.874;3.656;2022-07-23T07:20:02;30.60;;;15.00;;
21046;SDS011;10682;50.874;3.656;2022-07-23T07:22:32;23.17;;;14.88;;
21046;SDS011;10682;50.874;3.656;2022-07-23T07:24:59;20.08;;;13.98;;
21046;SDS011;10682;50.874;3.656;2022-07-23T07:27:26;21.15;;;12.82;;
21046;SDS011;10682;50.874;3.656;2022-07-23T07:32:43;22.00;;;13.27;;
21046;SDS011;10682;50.874;3.656;2022-07-23T07:35:25;23.13;;;13.20;;
21046;SDS011;10682;50.874;3.656;2022-07-23T07:37:53;21.10;;;12.63;;
21046;SDS011;10682;50.874;3.656;2022-07-23T07:40:20;19.95;;;13.43;;
21046;SDS011;10682;50.874;3.656;2022-07-23T07:42:48;20.58;;;12.45;;
21046;SDS011;10682;50.874;3.656;2022-07-23T07:45:17;24.13;;;12.98;;
21046;SDS011;10682;50.874;3.656;2022-07-23T07:47:47;22.40;;;13.38;;
21046;SDS011;10682;50.874;3.656;2022-07-23T07:50:14;23.25;;;12.13;;
21046;SDS011;10682;50.874;3.656;2022-07-23T07:52:42;17.50;;;11.35;;
21046;SDS011;10682;50.874;3.656;2022-07-23T07:55:09;22.35;;;12.07;;
21046;SDS011;10682;50.874;3.656;2022-07-23T07:57:37;22.15;;;12.63;;
21046;SDS011;10682;50.874;3.656;2022-07-23T08:00:05;18.88;;;11.38;;
21046;SDS011;10682;50.874;3.656;2022-07-23T08:02:45;19.33;;;11.60;;
21046;SDS011;10682;50.874;3.656;2022-07-23T08:05:23;14.98;;;9.48;;
21046;SDS011;10682;50.874;3.656;2022-07-23T08:07:57;18.58;;;9.93;;
21046;SDS011;10682;50.874;3.656;2022-07-23T08:10:26;17.63;;;9.75;;
21046;SDS011;10682;50.874;3.656;2022-07-23T08:12:54;15.93;;;9.57;;
21046;SDS011;10682;50.874;3.656;2022-07-23T08:15:26;19.33;;;8.57;;
21046;SDS011;10682;50.874;3.656;2022-07-23T08:17:55;15.05;;;10.48;;
21046;SDS011;10682;50.874;3.656;2022-07-23T08:20:23;16.63;;;10.27;;
21046;SDS011;10682;50.874;3.656;2022-07-23T08:22:55;18.15;;;10.50;;
21046;SDS011;10682;50.874;3.656;2022-07-23T08:25:26;15.95;;;8.98;;
21046;SDS011;10682;50.874;3.656;2022-07-23T08:27:57;14.77;;;9.85;;
21046;SDS011;10682;50.874;3.656;2022-07-23T08:30:26;20.83;;;10.13;;
21046;SDS011;10682;50.874;3.656;2022-07-23T08:32:58;16.50;;;8.88;;
21046;SDS011;10682;50.874;3.656;2022-07-23T08:38:01;13.32;;;8.40;;
21046;SDS011;10682;50.874;3.656;2022-07-23T08:40:34;16.48;;;9.52;;
21046;SDS011;10682;50.874;3.656;2022-07-23T08:43:09;12.55;;;8.07;;
21046;SDS011;10682;50.874;3.656;2022-07-23T08:45:43;16.55;;;8.57;;
21046;SDS011;10682;50.874;3.656;2022-07-23T08:48:14;13.00;;;7.13;;
21046;SDS011;10682;50.874;3.656;2022-07-23T08:50:46;13.95;;;8.27;;
21046;SDS011;10682;50.874;3.656;2022-07-23T08:53:23;14.77;;;7.93;;
21046;SDS011;10682;50.874;3.656;2022-07-23T08:55:54;10.35;;;7.55;;
21046;SDS011;10682;50.874;3.656;2022-07-23T08:58:25;12.98;;;7.90;;
21046;SDS011;10682;50.874;3.656;2022-07-23T09:00:54;14.63;;;7.72;;
21046;SDS011;10682;50.874;3.656;2022-07-23T09:03:24;11.68;;;7.00;;
21046;SDS011;10682;50.874;3.656;2022-07-23T09:05:57;12.55;;;7.60;;
21046;SDS011;10682;50.874;3.656;2022-07-23T09:08:35;14.15;;;7.93;;
21046;SDS011;10682;50.874;3.656;2022-07-23T09:11:06;13.30;;;7.10;;
21046;SDS011;10682;50.874;3.656;2022-07-23T09:13:40;9.85;;;6.07;;
21046;SDS011;10682;50.874;3.656;2022-07-23T09:21:19;8.18;;;5.25;;
21046;SDS011;10682;50.874;3.656;2022-07-23T09:23:53;9.02;;;5.45;;
21046;SDS011;10682;50.874;3.656;2022-07-23T09:26:31;7.72;;;4.25;;
21046;SDS011;10682;50.874;3.656;2022-07-23T09:29:13;7.47;;;4.82;;
21046;SDS011;10682;50.874;3.656;2022-07-23T09:34:43;10.07;;;5.18;;
21046;SDS011;10682;50.874;3.656;2022-07-23T09:37:16;8.48;;;4.50;;
21046;SDS011;10682;50.874;3.656;2022-07-23T09:39:46;8.38;;;4.88;;
21046;SDS011;10682;50.874;3.656;2022-07-23T09:42:19;7.25;;;5.13;;
21046;SDS011;10682;50.874;3.656;2022-07-23T09:44:51;7.45;;;5.10;;
21046;SDS011;10682;50.874;3.656;2022-07-23T09:47:24;9.23;;;4.70;;
21046;SDS011;10682;50.874;3.656;2022-07-23T09:50:09;7.35;;;5.00;;
21046;SDS011;10682;50.874;3.656;2022-07-23T09:52:43;10.98;;;5.53;;
21046;SDS011;10682;50.874;3.656;2022-07-23T09:55:14;7.30;;;4.53;;
21046;SDS011;10682;50.874;3.656;2022-07-23T09:57:44;11.52;;;5.93;;
21046;SDS011;10682;50.874;3.656;2022-07-23T10:00:16;7.38;;;5.18;;
21046;SDS011;10682;50.874;3.656;2022-07-23T10:02:43;10.05;;;5.30;;
21046;SDS011;10682;50.874;3.656;2022-07-23T10:05:12;6.82;;;4.72;;
21046;SDS011;10682;50.874;3.656;2022-07-23T10:07:41;9.40;;;5.00;;
21046;SDS011;10682;50.874;3.656;2022-07-23T10:10:16;9.25;;;5.40;;
21046;SDS011;10682;50.874;3.656;2022-07-23T10:12:44;11.55;;;6.07;;
21046;SDS011;10682;50.874;3.656;2022-07-23T10:15:17;7.18;;;4.68;;
21046;SDS011;10682;50.874;3.656;2022-07-23T10:17:45;7.25;;;3.60;;
21046;SDS011;10682;50.874;3.656;2022-07-23T10:20:12;6.00;;;4.30;;
21046;SDS011;10682;50.874;3.656;2022-07-23T10:22:49;5.85;;;3.65;;
21046;SDS011;10682;50.874;3.656;2022-07-23T10:25:49;7.85;;;4.60;;
21046;SDS011;10682;50.874;3.656;2022-07-23T10:40:12;8.65;;;4.10;;
21046;SDS011;10682;50.874;3.656;2022-07-23T10:42:39;6.63;;;3.67;;
21046;SDS011;10682;50.874;3.656;2022-07-23T10:48:19;6.07;;;3.50;;
21046;SDS011;10682;50.874;3.656;2022-07-23T10:59:22;6.95;;;3.65;;
21046;SDS011;10682;50.874;3.656;2022-07-23T11:01:49;6.95;;;3.42;;
21046;SDS011;10682;50.874;3.656;2022-07-23T11:04:18;9.00;;;3.63;;
21046;SDS011;10682;50.874;3.656;2022-07-23T11:09:38;6.80;;;3.53;;
21046;SDS011;10682;50.874;3.656;2022-07-23T11:15:06;6.35;;;3.53;;
21046;SDS011;10682;50.874;3.656;2022-07-23T11:20:21;5.60;;;3.08;;
21046;SDS011;10682;50.874;3.656;2022-07-23T11:22:50;6.53;;;3.17;;
21046;SDS011;10682;50.874;3.656;2022-07-23T11:27:54;5.97;;;2.85;;
21046;SDS011;10682;50.874;3.656;2022-07-23T11:30:44;4.70;;;3.15;;
21046;SDS011;10682;50.874;3.656;2022-07-23T11:35:39;6.47;;;3.60;;
21046;SDS011;10682;50.874;3.656;2022-07-23T11:40:51;5.50;;;3.45;;
21046;SDS011;10682;50.874;3.656;2022-07-23T11:43:21;6.97;;;3.00;;
21046;SDS011;10682;50.874;3.656;2022-07-23T11:45:50;5.22;;;3.10;;
21046;SDS011;10682;50.874;3.656;2022-07-23T11:48:21;9.30;;;2.90;;
21046;SDS011;10682;50.874;3.656;2022-07-23T11:50:50;6.63;;;3.05;;
21046;SDS011;10682;50.874;3.656;2022-07-23T11:56:06;7.25;;;2.90;;
21046;SDS011;10682;50.874;3.656;2022-07-23T11:58:36;6.70;;;3.10;;
21046;SDS011;10682;50.874;3.656;2022-07-23T12:01:05;7.72;;;2.92;;
21046;SDS011;10682;50.874;3.656;2022-07-23T12:03:48;5.85;;;3.05;;
21046;SDS011;10682;50.874;3.656;2022-07-23T12:06:17;6.50;;;3.25;;
21046;SDS011;10682;50.874;3.656;2022-07-23T12:08:44;6.40;;;3.20;;
21046;SDS011;10682;50.874;3.656;2022-07-23T12:11:15;5.15;;;3.28;;
21046;SDS011;10682;50.874;3.656;2022-07-23T12:13:42;4.78;;;2.80;;
21046;SDS011;10682;50.874;3.656;2022-07-23T12:16:09;6.13;;;2.80;;
21046;SDS011;10682;50.874;3.656;2022-07-23T12:18:36;5.00;;;2.70;;
21046;SDS011;10682;50.874;3.656;2022-07-23T12:21:04;4.82;;;2.70;;
21046;SDS011;10682;50.874;3.656;2022-07-23T12:23:33;5.50;;;2.78;;
21046;SDS011;10682;50.874;3.656;2022-07-23T12:26:01;7.78;;;2.90;;
21046;SDS011;10682;50.874;3.656;2022-07-23T12:28:32;7.03;;;3.30;;
21046;SDS011;10682;50.874;3.656;2022-07-23T12:31:01;9.68;;;3.25;;
21046;SDS011;10682;50.874;3.656;2022-07-23T12:33:30;6.35;;;3.45;;
21046;SDS011;10682;50.874;3.656;2022-07-23T12:35:59;6.65;;;3.17;;
21046;SDS011;10682;50.874;3.656;2022-07-23T12:38:40;4.68;;;2.95;;
21046;SDS011;10682;50.874;3.656;2022-07-23T12:41:15;8.35;;;3.35;;
21046;SDS011;10682;50.874;3.656;2022-07-23T12:43:44;6.22;;;3.08;;
21046;SDS011;10682;50.874;3.656;2022-07-23T12:51:25;8.07;;;3.65;;
21046;SDS011;10682;50.874;3.656;2022-07-23T12:54:05;7.32;;;3.65;;
21046;SDS011;10682;50.874;3.656;2022-07-23T12:56:36;5.60;;;3.47;;
21046;SDS011;10682;50.874;3.656;2022-07-23T12:59:07;5.45;;;3.67;;
21046;SDS011;10682;50.874;3.656;2022-07-23T13:01:38;5.55;;;3.25;;
21046;SDS011;10682;50.874;3.656;2022-07-23T13:06:49;5.25;;;3.38;;
21046;SDS011;10682;50.874;3.656;2022-07-23T13:11:57;6.70;;;3.85;;
21046;SDS011;10682;50.874;3.656;2022-07-23T13:14:25;6.57;;;4.10;;
21046;SDS011;10682;50.874;3.656;2022-07-23T13:16:54;5.80;;;3.72;;
21046;SDS011;10682;50.874;3.656;2022-07-23T13:19:42;9.27;;;4.00;;
21046;SDS011;10682;50.874;3.656;2022-07-23T13:22:12;6.80;;;4.00;;
21046;SDS011;10682;50.874;3.656;2022-07-23T13:24:39;7.85;;;4.05;;
21046;SDS011;10682;50.874;3.656;2022-07-23T13:27:07;5.68;;;4.20;;
21046;SDS011;10682;50.874;3.656;2022-07-23T13:29:36;7.18;;;4.13;;
21046;SDS011;10682;50.874;3.656;2022-07-23T13:32:03;8.63;;;5.15;;
21046;SDS011;10682;50.874;3.656;2022-07-23T13:34:36;7.57;;;4.85;;
21046;SDS011;10682;50.874;3.656;2022-07-23T13:37:06;6.60;;;4.15;;
21046;SDS011;10682;50.874;3.656;2022-07-23T13:39:33;7.22;;;4.15;;
21046;SDS011;10682;50.874;3.656;2022-07-23T13:42:04;8.43;;;4.97;;
21046;SDS011;10682;50.874;3.656;2022-07-23T13:44:33;8.60;;;4.65;;
21046;SDS011;10682;50.874;3.656;2022-07-23T13:47:02;10.32;;;4.15;;
21046;SDS011;10682;50.874;3.656;2022-07-23T13:49:30;9.98;;;4.40;;
21046;SDS011;10682;50.874;3.656;2022-07-23T13:51:57;7.55;;;4.15;;
21046;SDS011;10682;50.874;3.656;2022-07-23T13:54:24;6.75;;;4.38;;
21046;SDS011;10682;50.874;3.656;2022-07-23T13:56:54;6.93;;;4.35;;
21046;SDS011;10682;50.874;3.656;2022-07-23T13:59:22;7.35;;;4.40;;
21046;SDS011;10682;50.874;3.656;2022-07-23T14:01:52;7.80;;;4.15;;
21046;SDS011;10682;50.874;3.656;2022-07-23T14:04:40;7.28;;;4.85;;
21046;SDS011;10682;50.874;3.656;2022-07-23T14:07:07;8.52;;;4.28;;
21046;SDS011;10682;50.874;3.656;2022-07-23T14:09:35;8.10;;;4.22;;
21046;SDS011;10682;50.874;3.656;2022-07-23T14:12:03;9.10;;;4.38;;
21046;SDS011;10682;50.874;3.656;2022-07-23T14:14:32;6.53;;;4.30;;
21046;SDS011;10682;50.874;3.656;2022-07-23T14:17:02;7.68;;;4.85;;
21046;SDS011;10682;50.874;3.656;2022-07-23T14:19:30;7.97;;;4.90;;
21046;SDS011;10682;50.874;3.656;2022-07-23T14:21:58;7.72;;;4.72;;
21046;SDS011;10682;50.874;3.656;2022-07-23T14:24:25;8.45;;;5.40;;
21046;SDS011;10682;50.874;3.656;2022-07-23T14:26:59;6.55;;;4.85;;
21046;SDS011;10682;50.874;3.656;2022-07-23T14:29:28;7.82;;;5.40;;
21046;SDS011;10682;50.874;3.656;2022-07-23T14:31:56;6.40;;;4.88;;
21046;SDS011;10682;50.874;3.656;2022-07-23T14:34:27;7.82;;;4.90;;
21046;SDS011;10682;50.874;3.656;2022-07-23T14:36:58;8.18;;;4.90;;
21046;SDS011;10682;50.874;3.656;2022-07-23T14:39:26;10.00;;;6.25;;
21046;SDS011;10682;50.874;3.656;2022-07-23T14:41:57;7.53;;;5.10;;
21046;SDS011;10682;50.874;3.656;2022-07-23T14:44:34;8.30;;;5.38;;
21046;SDS011;10682;50.874;3.656;2022-07-23T14:47:05;6.30;;;4.90;;
21046;SDS011;10682;50.874;3.656;2022-07-23T14:49:46;11.90;;;5.80;;
21046;SDS011;10682;50.874;3.656;2022-07-23T14:52:13;12.88;;;6.20;;
21046;SDS011;10682;50.874;3.656;2022-07-23T14:54:41;9.98;;;5.68;;
21046;SDS011;10682;50.874;3.656;2022-07-23T14:57:08;9.93;;;6.00;;
21046;SDS011;10682;50.874;3.656;2022-07-23T14:59:36;7.88;;;5.90;;
21046;SDS011;10682;50.874;3.656;2022-07-23T15:02:03;11.57;;;5.68;;
21046;SDS011;10682;50.874;3.656;2022-07-23T15:04:31;6.30;;;5.00;;
21046;SDS011;10682;50.874;3.656;2022-07-23T15:07:03;9.80;;;5.45;;
21046;SDS011;10682;50.874;3.656;2022-07-23T15:09:31;10.60;;;5.03;;
21046;SDS011;10682;50.874;3.656;2022-07-23T15:11:58;8.18;;;5.00;;
21046;SDS011;10682;50.874;3.656;2022-07-23T15:14:25;8.52;;;5.63;;
21046;SDS011;10682;50.874;3.656;2022-07-23T15:17:00;8.43;;;5.90;;
21046;SDS011;10682;50.874;3.656;2022-07-23T15:19:27;9.68;;;5.60;;
21046;SDS011;10682;50.874;3.656;2022-07-23T15:21:56;7.30;;;5.20;;
21046;SDS011;10682;50.874;3.656;2022-07-23T15:24:23;5.88;;;4.90;;
21046;SDS011;10682;50.874;3.656;2022-07-23T15:26:50;6.97;;;4.63;;
21046;SDS011;10682;50.874;3.656;2022-07-23T15:29:17;9.70;;;5.93;;
21046;SDS011;10682;50.874;3.656;2022-07-23T15:31:46;7.63;;;4.60;;
21046;SDS011;10682;50.874;3.656;2022-07-23T15:34:22;7.43;;;4.85;;
21046;SDS011;10682;50.874;3.656;2022-07-23T15:36:49;8.30;;;5.45;;
21046;SDS011;10682;50.874;3.656;2022-07-23T15:39:17;8.45;;;4.88;;
21046;SDS011;10682;50.874;3.656;2022-07-23T15:41:45;8.82;;;4.85;;
21046;SDS011;10682;50.874;3.656;2022-07-23T15:44:13;6.38;;;4.88;;
21046;SDS011;10682;50.874;3.656;2022-07-23T15:46:55;6.93;;;5.32;;
21046;SDS011;10682;50.874;3.656;2022-07-23T15:49:25;8.30;;;6.03;;
21046;SDS011;10682;50.874;3.656;2022-07-23T15:51:54;12.15;;;5.43;;
21046;SDS011;10682;50.874;3.656;2022-07-23T15:54:21;10.32;;;5.70;;
21046;SDS011;10682;50.874;3.656;2022-07-23T15:56:48;7.43;;;5.07;;